createdAt,value
2024-02-21T00:00:51.045Z,10.10
2024-02-21T00:03:19.806Z,10.10
2024-02-21T00:05:48.271Z,10.00
2024-02-21T00:08:16.584Z,10.00
2024-02-21T00:10:45.405Z,10.00
2024-02-21T00:13:13.986Z,9.90
2024-02-21T00:15:42.182Z,9.80
2024-02-21T00:18:12.725Z,9.80
2024-02-21T00:20:41.218Z,9.70
2024-02-21T00:23:09.330Z,9.90
2024-02-21T00:25:37.995Z,9.90
2024-02-21T00:28:07.811Z,9.90
2024-02-21T00:30:36.058Z,9.80
2024-02-21T00:33:04.782Z,9.80
2024-02-21T00:35:34.646Z,9.80
2024-02-21T00:38:04.586Z,9.80
2024-02-21T00:40:33.320Z,9.70
2024-02-21T00:43:01.769Z,9.70
2024-02-21T00:45:30.042Z,9.70
2024-02-21T00:47:58.545Z,9.70
2024-02-21T00:50:30.021Z,9.60
2024-02-21T00:53:00.601Z,9.60
2024-02-21T00:55:28.873Z,9.60
2024-02-21T00:57:57.281Z,9.50
2024-02-21T01:00:25.905Z,9.50
2024-02-21T01:02:54.455Z,9.50
2024-02-21T01:05:23.943Z,9.50
2024-02-21T01:07:52.958Z,9.40
2024-02-21T01:10:22.890Z,9.30
2024-02-21T01:12:51.303Z,9.40
2024-02-21T01:15:20.223Z,9.40
2024-02-21T01:17:48.517Z,9.30
2024-02-21T01:20:16.880Z,9.30
2024-02-21T01:22:45.381Z,9.30
2024-02-21T01:25:13.654Z,9.20
2024-02-21T01:27:43.319Z,9.20
2024-02-21T01:30:13.232Z,9.10
2024-02-21T01:32:41.484Z,9.00
2024-02-21T01:35:10.829Z,9.10
2024-02-21T01:37:39.443Z,9.10
2024-02-21T01:40:08.836Z,9.00
2024-02-21T01:42:42.342Z,9.00
2024-02-21T01:45:11.392Z,9.00
2024-02-21T01:47:40.010Z,8.90
2024-02-21T01:50:09.880Z,9.00
2024-02-21T01:52:38.627Z,9.00
2024-02-21T01:55:08.257Z,9.00
2024-02-21T01:57:36.757Z,8.90
2024-02-21T02:00:08.685Z,8.90
2024-02-21T02:02:38.419Z,9.00
2024-02-21T02:05:07.977Z,9.00
2024-02-21T02:07:36.349Z,8.90
2024-02-21T02:10:05.424Z,9.10
2024-02-21T02:12:33.713Z,9.10
2024-02-21T02:15:02.590Z,9.10
2024-02-21T02:17:32.891Z,9.00
2024-02-21T02:20:01.322Z,8.90
2024-02-21T02:22:31.681Z,9.00
2024-02-21T02:25:01.877Z,9.00
2024-02-21T02:27:30.105Z,9.00
2024-02-21T02:29:58.457Z,9.00
2024-02-21T02:32:27.897Z,9.00
2024-02-21T02:34:56.916Z,9.00
2024-02-21T02:37:25.275Z,9.00
2024-02-21T02:39:53.970Z,9.10
2024-02-21T02:42:24.082Z,9.00
2024-02-21T02:44:52.589Z,9.10
2024-02-21T02:47:21.085Z,9.10
2024-02-21T02:49:52.247Z,9.10
2024-02-21T02:52:21.127Z,9.10
2024-02-21T02:54:53.006Z,9.00
2024-02-21T02:57:21.476Z,8.90
2024-02-21T02:59:52.733Z,9.00
2024-02-21T03:02:21.179Z,9.10
2024-02-21T03:04:49.824Z,9.00
2024-02-21T03:07:18.544Z,9.20
2024-02-21T03:09:46.790Z,9.10
2024-02-21T03:12:20.405Z,9.10
2024-02-21T03:14:48.768Z,9.10
2024-02-21T03:17:18.534Z,9.10
2024-02-21T03:19:47.126Z,9.10
2024-02-21T03:22:16.944Z,9.10
2024-02-21T03:24:45.217Z,9.10
2024-02-21T03:27:14.169Z,9.10
2024-02-21T03:29:42.920Z,9.10
2024-02-21T03:32:11.376Z,9.10
2024-02-21T03:34:41.153Z,9.10
2024-02-21T03:37:09.597Z,9.10
2024-02-21T03:39:38.477Z,9.00
2024-02-21T03:42:07.532Z,8.90
2024-02-21T03:44:36.136Z,8.90
2024-02-21T03:47:04.409Z,8.90
2024-02-21T03:49:33.249Z,9.00
2024-02-21T03:52:02.940Z,8.90
2024-02-21T03:54:31.136Z,8.90
2024-02-21T03:56:59.622Z,8.80
2024-02-21T03:59:28.024Z,8.80
2024-02-21T04:01:56.917Z,8.80
2024-02-21T04:04:25.545Z,8.80
2024-02-21T04:06:54.216Z,8.80
2024-02-21T04:09:23.913Z,8.90
2024-02-21T04:11:52.582Z,8.90
2024-02-21T04:14:20.999Z,8.80
2024-02-21T04:16:49.329Z,8.80
2024-02-21T04:19:18.013Z,8.80
2024-02-21T04:21:46.435Z,8.90
2024-02-21T04:24:14.646Z,8.90
2024-02-21T04:26:45.154Z,8.90
2024-02-21T04:29:13.920Z,8.90
2024-02-21T04:31:42.321Z,8.90
2024-02-21T04:34:10.658Z,9.00
2024-02-21T04:36:39.113Z,9.00
2024-02-21T04:39:07.375Z,9.10
2024-02-21T04:41:35.934Z,8.90
2024-02-21T04:44:08.311Z,8.90
2024-02-21T04:46:36.897Z,9.00
2024-02-21T04:49:05.625Z,8.90
2024-02-21T04:51:35.012Z,8.90
2024-02-21T04:54:05.609Z,8.80
2024-02-21T04:56:34.227Z,8.80
2024-02-21T04:59:02.568Z,8.70
2024-02-21T05:01:32.621Z,8.60
2024-02-21T05:04:01.491Z,8.70
2024-02-21T05:06:29.888Z,8.70
2024-02-21T05:08:59.395Z,8.70
2024-02-21T05:11:28.178Z,8.70
2024-02-21T05:13:56.527Z,8.80
2024-02-21T05:16:25.301Z,8.90
2024-02-21T05:18:55.597Z,8.90
2024-02-21T05:21:24.855Z,8.90
2024-02-21T05:23:53.971Z,8.80
2024-02-21T05:26:26.496Z,9.00
2024-02-21T05:28:55.291Z,9.10
2024-02-21T05:31:23.682Z,9.00
2024-02-21T05:33:52.145Z,9.00
2024-02-21T05:36:22.081Z,9.00
2024-02-21T05:38:50.517Z,9.00
2024-02-21T05:41:18.719Z,9.10
2024-02-21T05:43:47.254Z,9.00
2024-02-21T05:46:15.713Z,9.00
2024-02-21T05:48:44.038Z,9.00
2024-02-21T05:51:12.611Z,9.00
2024-02-21T05:53:43.101Z,9.10
2024-02-21T05:56:13.226Z,9.10
2024-02-21T05:58:42.200Z,9.00
2024-02-21T06:01:10.589Z,9.00
2024-02-21T06:03:38.976Z,9.10
2024-02-21T06:06:08.041Z,9.00
2024-02-21T06:08:36.226Z,9.00
2024-02-21T06:11:06.450Z,9.00
2024-02-21T06:13:35.046Z,9.00
2024-02-21T06:16:03.584Z,9.00
2024-02-21T06:18:31.966Z,9.10
2024-02-21T06:21:00.716Z,9.00
2024-02-21T06:23:29.031Z,9.00
2024-02-21T06:25:57.310Z,9.00
2024-02-21T06:28:27.199Z,9.00
2024-02-21T06:30:55.620Z,9.00
2024-02-21T06:33:26.220Z,9.00
2024-02-21T06:35:55.401Z,9.00
2024-02-21T06:38:23.685Z,9.00
2024-02-21T06:40:53.616Z,9.00
2024-02-21T06:43:23.785Z,9.00
2024-02-21T06:45:53.552Z,8.90
2024-02-21T06:48:22.040Z,9.00
2024-02-21T06:50:50.601Z,9.00
2024-02-21T06:53:18.993Z,9.00
2024-02-21T06:55:47.787Z,9.00
2024-02-21T07:00:46.520Z,9.20
2024-02-21T07:03:16.355Z,9.10
2024-02-21T07:05:44.864Z,9.20
2024-02-21T07:08:13.303Z,9.10
2024-02-21T07:10:41.823Z,9.10
2024-02-21T07:13:10.296Z,9.10
2024-02-21T07:15:39.056Z,9.10
2024-02-21T07:18:07.517Z,9.10
2024-02-21T07:20:38.538Z,9.10
2024-02-21T07:23:06.776Z,9.20
2024-02-21T07:25:35.409Z,9.20
2024-02-21T07:28:04.277Z,9.10
2024-02-21T07:30:32.454Z,9.10
2024-02-21T07:33:00.915Z,9.20
2024-02-21T07:35:29.694Z,9.30
2024-02-21T07:37:59.375Z,9.30
2024-02-21T07:40:27.704Z,9.20
2024-02-21T07:42:56.669Z,9.20
2024-02-21T07:45:25.764Z,9.20
2024-02-21T07:47:54.005Z,9.20
2024-02-21T07:50:22.457Z,9.10
2024-02-21T07:52:50.801Z,9.20
2024-02-21T07:55:20.741Z,9.10
2024-02-21T07:57:49.053Z,9.10
2024-02-21T08:00:21.219Z,9.10
2024-02-21T08:02:51.315Z,9.00
2024-02-21T08:05:19.751Z,9.00
2024-02-21T08:07:47.987Z,9.00
2024-02-21T08:10:16.839Z,9.00
2024-02-21T08:12:46.480Z,9.00
2024-02-21T08:15:14.718Z,9.00
2024-02-21T08:17:43.424Z,9.00
2024-02-21T08:20:13.121Z,9.00
2024-02-21T08:22:41.441Z,9.10
2024-02-21T08:25:10.160Z,9.10
2024-02-21T08:27:40.257Z,9.10
2024-02-21T08:30:11.271Z,9.10
2024-02-21T08:32:39.548Z,9.00
2024-02-21T08:35:08.491Z,8.90
2024-02-21T08:37:37.134Z,9.00
2024-02-21T08:40:10.184Z,9.00
2024-02-21T08:42:41.742Z,9.00
2024-02-21T08:45:12.354Z,9.00
2024-02-21T08:47:42.936Z,9.10
2024-02-21T08:50:19.645Z,9.10
2024-02-21T08:52:56.010Z,9.10
2024-02-21T08:55:25.431Z,9.20
2024-02-21T08:57:53.828Z,9.20
2024-02-21T09:00:28.976Z,9.30
2024-02-21T09:02:58.171Z,9.20
2024-02-21T09:05:26.958Z,9.30
2024-02-21T09:07:55.815Z,9.30
2024-02-21T09:10:24.305Z,9.20
2024-02-21T09:12:52.917Z,9.20
2024-02-21T09:15:21.506Z,9.10
2024-02-21T09:17:51.142Z,9.20
2024-02-21T09:20:19.591Z,9.20
2024-02-21T09:22:48.112Z,9.20
2024-02-21T09:25:16.828Z,9.30
2024-02-21T09:27:46.855Z,9.20
2024-02-21T09:30:15.954Z,9.20
2024-02-21T09:32:44.434Z,9.30
2024-02-21T09:35:14.860Z,9.40
2024-02-21T09:37:43.587Z,9.40
2024-02-21T09:40:12.880Z,9.50
2024-02-21T09:42:43.181Z,9.60
2024-02-21T09:45:21.663Z,9.60
2024-02-21T09:48:05.519Z,9.60
2024-02-21T09:50:36.793Z,9.50
2024-02-21T09:53:08.326Z,9.50
2024-02-21T09:55:41.390Z,9.60
2024-02-21T09:58:11.265Z,9.60
2024-02-21T10:00:39.606Z,9.70
2024-02-21T10:03:11.049Z,9.70
2024-02-21T10:05:41.248Z,9.70
2024-02-21T10:08:16.526Z,9.70
2024-02-21T10:10:45.666Z,9.80
2024-02-21T10:13:26.847Z,9.80
2024-02-21T10:16:05.817Z,9.80
2024-02-21T10:18:34.764Z,9.90
2024-02-21T10:21:06.499Z,9.90
2024-02-21T10:23:45.702Z,9.90
2024-02-21T10:26:14.285Z,9.80
2024-02-21T10:28:43.996Z,9.90
2024-02-21T10:31:13.370Z,9.90
2024-02-21T10:33:41.637Z,9.90
2024-02-21T10:36:12.892Z,10.00
2024-02-21T10:38:42.137Z,9.90
2024-02-21T10:41:16.782Z,9.80
2024-02-21T10:43:49.918Z,9.90
2024-02-21T10:46:26.418Z,9.80
2024-02-21T10:49:11.557Z,9.80
2024-02-21T10:51:45.755Z,9.90
2024-02-21T10:54:28.482Z,9.90
2024-02-21T10:57:02.540Z,9.80
2024-02-21T10:59:33.467Z,9.80
2024-02-21T11:02:02.188Z,9.80
2024-02-21T11:04:33.215Z,9.80
2024-02-21T11:07:07.860Z,9.90
2024-02-21T11:09:38.725Z,9.90
2024-02-21T11:12:09.098Z,9.90
2024-02-21T11:14:43.007Z,9.90
2024-02-21T11:17:18.390Z,9.90
2024-02-21T11:19:47.239Z,9.90
2024-02-21T11:22:21.227Z,9.90
2024-02-21T11:24:49.596Z,10.00
2024-02-21T11:27:22.086Z,10.00
2024-02-21T11:29:52.806Z,10.20
2024-02-21T11:32:23.302Z,10.30
2024-02-21T11:35:02.994Z,10.30
2024-02-21T11:37:35.365Z,10.30
2024-02-21T11:40:04.458Z,10.30
2024-02-21T11:42:33.394Z,10.20
2024-02-21T11:45:02.572Z,10.20
2024-02-21T11:47:31.830Z,10.10
2024-02-21T11:50:00.448Z,10.20
2024-02-21T11:52:29.478Z,10.20
2024-02-21T11:55:06.383Z,10.30
2024-02-21T11:57:36.895Z,10.30
2024-02-21T12:00:15.654Z,10.30
2024-02-21T12:02:44.705Z,10.30
2024-02-21T12:05:13.325Z,10.40
2024-02-21T12:07:42.347Z,10.40
2024-02-21T12:10:13.332Z,10.50
2024-02-21T12:12:42.009Z,10.40
2024-02-21T12:15:10.982Z,10.40
2024-02-21T12:17:40.305Z,10.40
2024-02-21T12:20:13.765Z,10.40
2024-02-21T12:22:44.082Z,10.40
2024-02-21T12:25:21.062Z,10.50
2024-02-21T12:27:50.581Z,10.50
2024-02-21T12:30:19.347Z,10.70
2024-02-21T12:32:47.796Z,10.70
2024-02-21T12:35:16.739Z,10.70
2024-02-21T12:37:46.006Z,10.70
2024-02-21T12:40:15.872Z,10.80
2024-02-21T12:42:46.920Z,10.80
2024-02-21T12:45:16.996Z,10.70
2024-02-21T12:47:45.721Z,10.70
2024-02-21T12:50:14.345Z,10.80
2024-02-21T12:52:42.752Z,10.90
2024-02-21T12:55:12.270Z,10.80
2024-02-21T12:57:41.220Z,10.90
2024-02-21T13:00:12.569Z,11.00
2024-02-21T13:02:40.959Z,11.00
2024-02-21T13:05:10.057Z,11.00
2024-02-21T13:07:38.492Z,11.00
2024-02-21T13:10:07.942Z,11.00
2024-02-21T13:12:36.412Z,10.90
2024-02-21T13:15:05.916Z,10.90
2024-02-21T13:17:36.111Z,10.90
2024-02-21T13:20:05.243Z,10.80
2024-02-21T13:22:33.681Z,10.80
2024-02-21T13:25:02.268Z,10.80
2024-02-21T13:27:30.844Z,10.70
2024-02-21T13:30:00.050Z,10.70
2024-02-21T13:32:28.558Z,10.60
2024-02-21T13:35:01.164Z,10.60
2024-02-21T13:37:29.854Z,10.50
2024-02-21T13:39:58.348Z,10.40
2024-02-21T13:42:28.949Z,10.30
2024-02-21T13:44:57.264Z,10.30
2024-02-21T13:47:25.566Z,10.20
2024-02-21T13:49:54.299Z,10.20
2024-02-21T13:52:26.416Z,10.20
2024-02-21T13:54:54.977Z,10.20
2024-02-21T13:57:23.846Z,10.10
2024-02-21T13:59:52.654Z,10.10
2024-02-21T14:02:21.009Z,10.00
2024-02-21T14:04:49.557Z,10.00
2024-02-21T14:07:18.446Z,9.90
2024-02-21T14:09:48.293Z,9.90
2024-02-21T14:12:21.770Z,10.00
2024-02-21T14:14:51.358Z,9.90
2024-02-21T14:17:19.822Z,9.90
2024-02-21T14:19:48.219Z,9.90
2024-02-21T14:22:16.545Z,9.90
2024-02-21T14:24:45.908Z,9.90
2024-02-21T14:27:15.810Z,9.90
2024-02-21T14:29:44.456Z,9.90
2024-02-21T14:32:15.144Z,9.80
2024-02-21T14:34:43.937Z,9.90
2024-02-21T14:37:12.535Z,9.80
2024-02-21T14:39:41.447Z,9.70
2024-02-21T14:42:10.774Z,9.70
2024-02-21T14:44:40.748Z,9.70
2024-02-21T14:47:09.151Z,9.70
2024-02-21T14:49:38.252Z,9.50
2024-02-21T14:52:07.068Z,9.50
2024-02-21T14:54:35.764Z,9.50
2024-02-21T14:57:04.437Z,9.60
2024-02-21T14:59:35.215Z,9.60
2024-02-21T15:02:05.794Z,9.60
2024-02-21T15:04:34.366Z,9.70
2024-02-21T15:07:03.350Z,9.70
2024-02-21T15:09:32.096Z,9.60
2024-02-21T15:12:00.768Z,9.70
2024-02-21T15:14:29.331Z,9.70
2024-02-21T15:16:58.095Z,9.80
2024-02-21T15:19:28.359Z,9.80
2024-02-21T15:21:56.868Z,9.80
2024-02-21T15:24:25.970Z,9.80
2024-02-21T15:26:54.373Z,9.80
2024-02-21T15:29:24.757Z,9.80
2024-02-21T15:31:54.064Z,9.80
2024-02-21T15:34:22.686Z,9.70
2024-02-21T15:36:53.080Z,9.70
2024-02-21T15:39:21.513Z,9.70
2024-02-21T15:41:49.773Z,9.80
2024-02-21T15:44:18.120Z,9.80
2024-02-21T15:46:46.502Z,9.90
2024-02-21T15:49:15.060Z,9.90
2024-02-21T15:51:43.718Z,9.80
2024-02-21T15:54:14.631Z,9.80
2024-02-21T15:56:44.229Z,9.90
2024-02-21T15:59:13.363Z,9.90
2024-02-21T16:01:44.619Z,9.80
2024-02-21T16:04:13.628Z,9.90
2024-02-21T16:06:41.960Z,9.90
2024-02-21T16:09:10.516Z,9.90
2024-02-21T16:11:40.395Z,9.90
2024-02-21T16:14:08.722Z,9.90
2024-02-21T16:16:37.604Z,9.90
2024-02-21T16:19:06.715Z,9.90
2024-02-21T16:21:36.288Z,10.00
2024-02-21T16:24:05.439Z,9.90
2024-02-21T16:26:36.728Z,9.90
2024-02-21T16:29:08.858Z,9.90
2024-02-21T16:31:38.324Z,9.80
2024-02-21T16:34:07.529Z,9.80
2024-02-21T16:36:36.014Z,9.80
2024-02-21T16:39:06.300Z,9.90
2024-02-21T16:41:34.734Z,9.90
2024-02-21T16:44:03.212Z,9.90
2024-02-21T16:46:33.098Z,9.90
2024-02-21T16:49:01.560Z,10.00
2024-02-21T16:51:30.153Z,9.90
2024-02-21T16:53:59.996Z,10.00
2024-02-21T16:56:28.445Z,10.00
2024-02-21T16:58:57.110Z,10.00
2024-02-21T17:01:25.712Z,10.00
2024-02-21T17:03:55.451Z,10.00
2024-02-21T17:06:24.211Z,10.10
2024-02-21T17:08:52.520Z,10.10
2024-02-21T17:11:20.865Z,10.00
2024-02-21T17:13:49.526Z,10.10
2024-02-21T17:16:18.084Z,10.10
2024-02-21T17:18:48.006Z,10.20
2024-02-21T17:21:17.965Z,10.10
2024-02-21T17:23:46.930Z,10.00
2024-02-21T17:26:15.348Z,9.90
2024-02-21T17:28:44.124Z,10.00
2024-02-21T17:31:13.376Z,10.00
2024-02-21T17:33:41.657Z,10.00
2024-02-21T17:36:12.437Z,10.00
2024-02-21T17:38:43.541Z,10.00
2024-02-21T17:41:12.076Z,9.90
2024-02-21T17:43:40.576Z,9.90
2024-02-21T17:46:09.271Z,10.00
2024-02-21T17:48:38.291Z,10.00
2024-02-21T17:51:06.969Z,9.90
2024-02-21T17:53:35.457Z,10.00
2024-02-21T17:56:06.084Z,10.10
2024-02-21T17:58:34.597Z,10.00
2024-02-21T18:01:03.175Z,9.90
2024-02-21T18:03:31.841Z,10.00
2024-02-21T18:06:02.725Z,10.00
2024-02-21T18:08:32.014Z,10.00
2024-02-21T18:11:00.549Z,10.00
2024-02-21T18:13:31.867Z,10.00
2024-02-21T18:16:02.215Z,10.00
2024-02-21T18:18:31.778Z,10.00
2024-02-21T18:21:00.246Z,10.00
2024-02-21T18:23:30.824Z,10.00
2024-02-21T18:26:00.572Z,10.00
2024-02-21T18:28:30.864Z,10.00
2024-02-21T18:31:02.204Z,10.10
2024-02-21T18:33:30.585Z,10.10
2024-02-21T18:35:58.950Z,10.10
2024-02-21T18:38:27.362Z,10.20
2024-02-21T18:40:56.006Z,10.20
2024-02-21T18:43:24.517Z,10.20
2024-02-21T18:45:54.530Z,10.20
2024-02-21T18:48:23.031Z,10.10
2024-02-21T18:50:51.785Z,10.00
2024-02-21T18:53:20.365Z,10.10
2024-02-21T18:55:48.863Z,10.10
2024-02-21T18:58:17.361Z,10.10
2024-02-21T19:00:46.554Z,10.20
2024-02-21T19:03:16.467Z,10.20
2024-02-21T19:05:45.240Z,10.20
2024-02-21T19:08:14.194Z,10.30
2024-02-21T19:10:43.018Z,10.30
2024-02-21T19:13:11.679Z,10.30
2024-02-21T19:15:42.742Z,10.30
2024-02-21T19:18:11.434Z,10.30
2024-02-21T19:20:41.252Z,10.30
2024-02-21T19:23:10.458Z,10.40
2024-02-21T19:25:43.217Z,10.30
2024-02-21T19:28:12.719Z,10.30
2024-02-21T19:30:41.954Z,10.30
2024-02-21T19:33:12.034Z,10.40
2024-02-21T19:35:42.207Z,10.40
2024-02-21T19:38:11.128Z,10.30
2024-02-21T19:40:39.766Z,10.30
2024-02-21T19:43:08.474Z,10.30
2024-02-21T19:45:36.788Z,10.30
2024-02-21T19:48:05.696Z,10.30
2024-02-21T19:50:34.991Z,10.40
2024-02-21T19:53:05.346Z,10.40
2024-02-21T19:55:33.799Z,10.40
2024-02-21T19:58:02.587Z,10.30
2024-02-21T20:00:31.149Z,10.40
2024-02-21T20:02:59.406Z,10.40
2024-02-21T20:05:27.971Z,10.40
2024-02-21T20:07:56.699Z,10.40
2024-02-21T20:10:26.654Z,10.40
2024-02-21T20:12:55.831Z,10.40
2024-02-21T20:15:27.067Z,10.50
2024-02-21T20:17:56.172Z,10.50
2024-02-21T20:20:24.903Z,10.50
2024-02-21T20:22:54.052Z,10.50
2024-02-21T20:25:22.639Z,10.60
2024-02-21T20:27:52.762Z,10.50
2024-02-21T20:30:21.314Z,10.60
2024-02-21T20:32:52.218Z,10.50
2024-02-21T20:35:24.442Z,10.50
2024-02-21T20:37:52.989Z,10.50
2024-02-21T20:40:21.364Z,10.50
2024-02-21T20:42:51.154Z,10.50
2024-02-21T20:45:20.079Z,10.50
2024-02-21T20:47:48.424Z,10.50
2024-02-21T20:50:17.420Z,10.60
2024-02-21T20:52:46.533Z,10.60
2024-02-21T20:55:16.032Z,10.70
2024-02-21T20:57:45.574Z,10.80
2024-02-21T21:00:16.537Z,10.80
2024-02-21T21:02:45.540Z,10.80
2024-02-21T21:05:14.673Z,10.80
2024-02-21T21:07:43.235Z,10.80
2024-02-21T21:10:11.699Z,10.80
2024-02-21T21:12:40.580Z,10.80
2024-02-21T21:15:10.257Z,10.70
2024-02-21T21:17:40.210Z,10.80
2024-02-21T21:20:13.614Z,10.80
2024-02-21T21:22:42.135Z,10.80
2024-02-21T21:25:11.295Z,10.80
2024-02-21T21:27:39.752Z,10.80
2024-02-21T21:30:09.537Z,10.80
2024-02-21T21:32:40.007Z,10.80
2024-02-21T21:35:11.097Z,10.80
2024-02-21T21:37:40.825Z,10.90
2024-02-21T21:40:13.787Z,11.00
2024-02-21T21:42:42.760Z,11.00
2024-02-21T21:45:12.391Z,11.00
2024-02-21T21:47:43.232Z,11.00
2024-02-21T21:50:12.411Z,11.10
2024-02-21T21:52:41.469Z,11.10
2024-02-21T21:55:11.513Z,11.10
2024-02-21T21:57:40.231Z,11.10
2024-02-21T22:00:11.274Z,11.10
2024-02-21T22:02:41.852Z,11.00
2024-02-21T22:05:10.771Z,11.10
2024-02-21T22:07:39.073Z,11.00
2024-02-21T22:10:08.661Z,11.10
2024-02-21T22:12:37.075Z,11.10
2024-02-21T22:15:06.557Z,11.10
2024-02-21T22:17:35.454Z,11.10
2024-02-21T22:20:06.892Z,11.00
2024-02-21T22:22:35.235Z,11.00
2024-02-21T22:25:03.874Z,11.10
2024-02-21T22:27:32.294Z,11.10
2024-02-21T22:30:00.704Z,11.20
2024-02-21T22:32:29.495Z,11.20
2024-02-21T22:34:58.206Z,11.10
2024-02-21T22:37:28.293Z,11.10
2024-02-21T22:39:57.107Z,11.10
2024-02-21T22:42:25.316Z,11.10
2024-02-21T22:44:53.678Z,11.20
2024-02-21T22:47:22.688Z,11.20
2024-02-21T22:49:51.297Z,11.20
2024-02-21T22:52:19.706Z,11.30
2024-02-21T22:54:50.141Z,11.20
2024-02-21T22:57:18.544Z,11.30
2024-02-21T22:59:47.902Z,11.40
2024-02-21T23:02:17.069Z,11.40
2024-02-21T23:04:45.897Z,11.30
2024-02-21T23:07:14.366Z,11.40
2024-02-21T23:09:43.051Z,11.40
2024-02-21T23:12:16.212Z,11.40
2024-02-21T23:14:45.374Z,11.50
2024-02-21T23:17:14.012Z,11.50
2024-02-21T23:19:42.904Z,11.40
2024-02-21T23:22:11.468Z,11.40
2024-02-21T23:24:39.804Z,11.50
2024-02-21T23:27:08.046Z,11.50
2024-02-21T23:29:38.668Z,11.50
2024-02-21T23:32:07.521Z,11.50
2024-02-21T23:34:36.359Z,11.50
2024-02-21T23:37:08.202Z,11.50
2024-02-21T23:39:36.674Z,11.50
2024-02-21T23:42:05.360Z,11.60
2024-02-21T23:44:33.917Z,11.70
2024-02-21T23:47:04.935Z,11.60
2024-02-21T23:49:33.348Z,11.60
2024-02-21T23:52:02.312Z,11.60
2024-02-21T23:54:30.584Z,11.60
2024-02-21T23:56:59.007Z,11.60
2024-02-21T23:59:27.465Z,11.60
